Pagrindinis puslapis
METAR-TAF:

METAR-TAF

Oro uostai :

Dzaoudzi, Majotas

platuma: 12-48S, ilguma: 045-17E, Aukštis: 8 m

Dabartinis oras

Ataskaita buvo paskelbta 22 minutes, ne 14:30 UTC
Vėjas 10 kt iš Pietų/Pietryčių
Temperatūra 26°C
Drėgmė 70%
Slėgis 1015 hPa
Matomumas 10 km arba daugiau
Mažai debesys ne aukštis 2800 ft

METAR: FMCZ 171430Z AUTO 16010KT 9999 FEW028 26/20 Q1015 NOSIG

Laikas: 17:52 (14:52 UTC)

Prognozė

Ataskaita buvo paskelbta 3 valandos ir 52 minutes, ne 11:00 UTC
Prognozė galioja nuo 17 metu 12 UTC su 18 metu 12 UTC
Vėjas 14 kt iš Pietų
Matomumas 10 km arba daugiau
Išsisklaidę debesys ne aukštis 2800 ft
Laikinai
nuo 17 metu 18 UTC su 17 metu 24 UTC
Vėjas 3 kt nuo kintamojo kryptimis

TAF: FMCZ 171100Z 1712/1812 17014KT 9999 SCT028 TEMPO 1718/1724 VRB03KT

Orai ataskaitas ir orų prognozės (METAR, TAF).

turimą stotys yra geltonos ir raudonos taškus žemėlapyje.

Perkelti pele per norėdami pamatyti stoties vardą.

Tada spustelėkite, norėdami matyti oro stebėjimo ir prognozės.

Norėdami pakeisti žemėlapį: spustelėkite ant žalios mygtukų su juodo kryžiaus žemyn,; žalią mygtuką su brūkšneliu, jei norite nutolinti; arba žalių rodyklių gretimoms žemėlapius.


METAR-TAF: